sensor_id;sensor_type;location;lat;lon;timestamp;P1;durP1;ratioP1;P2;durP2;ratioP2
24153;SDS011;12312;53.362;-1.518;2024-02-28T00:01:24;22.40;;;4.93;;
24153;SDS011;12312;53.362;-1.518;2024-02-28T00:04:08;18.52;;;4.03;;
24153;SDS011;12312;53.362;-1.518;2024-02-28T00:06:52;18.70;;;5.25;;
24153;SDS011;12312;53.362;-1.518;2024-02-28T00:09:36;10.25;;;3.50;;
24153;SDS011;12312;53.362;-1.518;2024-02-28T00:12:20;21.65;;;4.93;;
24153;SDS011;12312;53.362;-1.518;2024-02-28T00:15:04;26.00;;;4.72;;
24153;SDS011;12312;53.362;-1.518;2024-02-28T00:17:51;25.97;;;5.83;;
24153;SDS011;12312;53.362;-1.518;2024-02-28T00:20:36;19.50;;;5.43;;
24153;SDS011;12312;53.362;-1.518;2024-02-28T00:23:20;23.70;;;4.82;;
24153;SDS011;12312;53.362;-1.518;2024-02-28T00:26:04;22.58;;;6.30;;
24153;SDS011;12312;53.362;-1.518;2024-02-28T00:28:48;20.75;;;5.22;;
24153;SDS011;12312;53.362;-1.518;2024-02-28T00:31:32;21.73;;;5.18;;
24153;SDS011;12312;53.362;-1.518;2024-02-28T00:34:16;23.80;;;5.65;;
24153;SDS011;12312;53.362;-1.518;2024-02-28T00:37:00;20.17;;;6.32;;
24153;SDS011;12312;53.362;-1.518;2024-02-28T00:39:44;16.02;;;5.25;;
24153;SDS011;12312;53.362;-1.518;2024-02-28T00:42:28;20.88;;;5.55;;
24153;SDS011;12312;53.362;-1.518;2024-02-28T00:45:12;19.27;;;5.25;;
24153;SDS011;12312;53.362;-1.518;2024-02-28T00:47:56;20.48;;;4.45;;
24153;SDS011;12312;53.362;-1.518;2024-02-28T00:50:40;20.63;;;4.93;;
24153;SDS011;12312;53.362;-1.518;2024-02-28T00:53:24;18.38;;;4.10;;
24153;SDS011;12312;53.362;-1.518;2024-02-28T00:56:09;22.13;;;5.07;;
24153;SDS011;12312;53.362;-1.518;2024-02-28T00:58:53;19.65;;;4.82;;
24153;SDS011;12312;53.362;-1.518;2024-02-28T01:01:37;25.10;;;4.25;;
24153;SDS011;12312;53.362;-1.518;2024-02-28T01:04:22;17.83;;;4.90;;
24153;SDS011;12312;53.362;-1.518;2024-02-28T01:07:06;16.27;;;3.97;;
24153;SDS011;12312;53.362;-1.518;2024-02-28T01:09:50;19.60;;;4.07;;
24153;SDS011;12312;53.362;-1.518;2024-02-28T01:12:34;16.50;;;3.75;;
24153;SDS011;12312;53.362;-1.518;2024-02-28T01:15:18;16.58;;;5.40;;
24153;SDS011;12312;53.362;-1.518;2024-02-28T01:18:02;23.10;;;4.57;;
24153;SDS011;12312;53.362;-1.518;2024-02-28T01:20:46;14.63;;;3.95;;
24153;SDS011;12312;53.362;-1.518;2024-02-28T01:23:30;25.33;;;4.00;;
24153;SDS011;12312;53.362;-1.518;2024-02-28T01:26:15;24.10;;;4.22;;
24153;SDS011;12312;53.362;-1.518;2024-02-28T01:28:59;21.85;;;5.43;;
24153;SDS011;12312;53.362;-1.518;2024-02-28T01:31:43;19.65;;;4.43;;
24153;SDS011;12312;53.362;-1.518;2024-02-28T01:34:27;20.10;;;5.28;;
24153;SDS011;12312;53.362;-1.518;2024-02-28T01:37:11;23.40;;;5.97;;
24153;SDS011;12312;53.362;-1.518;2024-02-28T01:39:54;15.45;;;5.53;;
24153;SDS011;12312;53.362;-1.518;2024-02-28T01:42:39;26.38;;;6.10;;
24153;SDS011;12312;53.362;-1.518;2024-02-28T01:45:23;21.30;;;5.00;;
24153;SDS011;12312;53.362;-1.518;2024-02-28T01:48:08;18.17;;;4.63;;
24153;SDS011;12312;53.362;-1.518;2024-02-28T01:50:54;25.65;;;5.97;;
24153;SDS011;12312;53.362;-1.518;2024-02-28T01:53:38;27.83;;;6.68;;
24153;SDS011;12312;53.362;-1.518;2024-02-28T01:56:22;23.58;;;6.88;;
24153;SDS011;12312;53.362;-1.518;2024-02-28T01:59:09;15.57;;;5.45;;
24153;SDS011;12312;53.362;-1.518;2024-02-28T02:01:54;18.33;;;5.40;;
24153;SDS011;12312;53.362;-1.518;2024-02-28T02:04:39;21.65;;;6.35;;
24153;SDS011;12312;53.362;-1.518;2024-02-28T02:07:23;31.25;;;8.45;;
24153;SDS011;12312;53.362;-1.518;2024-02-28T02:10:07;17.88;;;7.05;;
24153;SDS011;12312;53.362;-1.518;2024-02-28T02:12:55;29.83;;;7.00;;
24153;SDS011;12312;53.362;-1.518;2024-02-28T02:15:47;22.40;;;6.50;;
24153;SDS011;12312;53.362;-1.518;2024-02-28T02:18:31;27.50;;;5.57;;
24153;SDS011;12312;53.362;-1.518;2024-02-28T02:21:15;24.15;;;5.38;;
24153;SDS011;12312;53.362;-1.518;2024-02-28T02:24:02;18.88;;;5.20;;
24153;SDS011;12312;53.362;-1.518;2024-02-28T02:26:46;26.27;;;5.50;;
24153;SDS011;12312;53.362;-1.518;2024-02-28T02:29:30;15.80;;;4.10;;
24153;SDS011;12312;53.362;-1.518;2024-02-28T02:32:14;28.02;;;6.03;;
24153;SDS011;12312;53.362;-1.518;2024-02-28T02:34:58;20.52;;;5.60;;
24153;SDS011;12312;53.362;-1.518;2024-02-28T02:37:45;29.77;;;6.18;;
24153;SDS011;12312;53.362;-1.518;2024-02-28T02:40:29;26.08;;;5.82;;
24153;SDS011;12312;53.362;-1.518;2024-02-28T02:43:13;18.55;;;6.00;;
24153;SDS011;12312;53.362;-1.518;2024-02-28T02:45:57;27.35;;;6.20;;
24153;SDS011;12312;53.362;-1.518;2024-02-28T02:48:41;36.30;;;7.80;;
24153;SDS011;12312;53.362;-1.518;2024-02-28T02:51:25;19.30;;;5.88;;
24153;SDS011;12312;53.362;-1.518;2024-02-28T02:54:09;19.23;;;6.25;;
24153;SDS011;12312;53.362;-1.518;2024-02-28T02:56:53;23.40;;;5.80;;
24153;SDS011;12312;53.362;-1.518;2024-02-28T02:59:37;20.17;;;5.70;;
24153;SDS011;12312;53.362;-1.518;2024-02-28T03:02:21;18.70;;;5.65;;
24153;SDS011;12312;53.362;-1.518;2024-02-28T03:05:06;17.55;;;5.78;;
24153;SDS011;12312;53.362;-1.518;2024-02-28T03:07:50;20.65;;;5.53;;
24153;SDS011;12312;53.362;-1.518;2024-02-28T03:10:34;19.50;;;5.10;;
24153;SDS011;12312;53.362;-1.518;2024-02-28T03:13:18;19.42;;;4.95;;
24153;SDS011;12312;53.362;-1.518;2024-02-28T03:16:03;22.17;;;5.55;;
24153;SDS011;12312;53.362;-1.518;2024-02-28T03:18:48;18.03;;;6.17;;
24153;SDS011;12312;53.362;-1.518;2024-02-28T03:21:31;26.92;;;5.63;;
24153;SDS011;12312;53.362;-1.518;2024-02-28T03:24:15;22.55;;;6.78;;
24153;SDS011;12312;53.362;-1.518;2024-02-28T03:27:01;29.65;;;7.38;;
24153;SDS011;12312;53.362;-1.518;2024-02-28T03:29:45;22.23;;;5.82;;
24153;SDS011;12312;53.362;-1.518;2024-02-28T03:32:29;18.92;;;5.80;;
24153;SDS011;12312;53.362;-1.518;2024-02-28T03:35:13;19.90;;;6.43;;
24153;SDS011;12312;53.362;-1.518;2024-02-28T03:37:57;21.30;;;6.63;;
24153;SDS011;12312;53.362;-1.518;2024-02-28T03:40:42;25.88;;;7.28;;
24153;SDS011;12312;53.362;-1.518;2024-02-28T03:43:26;20.83;;;6.15;;
24153;SDS011;12312;53.362;-1.518;2024-02-28T03:46:10;23.63;;;6.60;;
24153;SDS011;12312;53.362;-1.518;2024-02-28T03:48:54;17.63;;;6.00;;
24153;SDS011;12312;53.362;-1.518;2024-02-28T03:51:41;21.92;;;5.35;;
24153;SDS011;12312;53.362;-1.518;2024-02-28T03:54:26;24.13;;;5.47;;
24153;SDS011;12312;53.362;-1.518;2024-02-28T03:57:10;24.85;;;6.15;;
24153;SDS011;12312;53.362;-1.518;2024-02-28T03:59:54;24.02;;;5.35;;
24153;SDS011;12312;53.362;-1.518;2024-02-28T04:02:37;21.08;;;5.63;;
24153;SDS011;12312;53.362;-1.518;2024-02-28T04:05:21;34.45;;;6.78;;
24153;SDS011;12312;53.362;-1.518;2024-02-28T04:08:05;18.35;;;5.28;;
24153;SDS011;12312;53.362;-1.518;2024-02-28T04:10:50;16.95;;;4.75;;
24153;SDS011;12312;53.362;-1.518;2024-02-28T04:13:34;16.50;;;4.22;;
24153;SDS011;12312;53.362;-1.518;2024-02-28T04:16:18;14.32;;;4.18;;
24153;SDS011;12312;53.362;-1.518;2024-02-28T04:19:02;12.32;;;3.63;;
24153;SDS011;12312;53.362;-1.518;2024-02-28T04:21:46;16.80;;;3.63;;
24153;SDS011;12312;53.362;-1.518;2024-02-28T04:24:30;18.08;;;4.07;;
24153;SDS011;12312;53.362;-1.518;2024-02-28T04:27:16;12.35;;;4.45;;
24153;SDS011;12312;53.362;-1.518;2024-02-28T04:29:59;14.65;;;3.72;;
24153;SDS011;12312;53.362;-1.518;2024-02-28T04:32:44;17.02;;;2.88;;
24153;SDS011;12312;53.362;-1.518;2024-02-28T04:35:27;14.65;;;3.28;;
24153;SDS011;12312;53.362;-1.518;2024-02-28T04:38:12;14.27;;;3.25;;
24153;SDS011;12312;53.362;-1.518;2024-02-28T04:40:55;22.15;;;4.03;;
24153;SDS011;12312;53.362;-1.518;2024-02-28T04:43:39;17.35;;;3.28;;
24153;SDS011;12312;53.362;-1.518;2024-02-28T04:46:23;19.05;;;3.22;;
24153;SDS011;12312;53.362;-1.518;2024-02-28T04:49:07;11.63;;;3.65;;
24153;SDS011;12312;53.362;-1.518;2024-02-28T04:51:52;19.05;;;3.22;;
24153;SDS011;12312;53.362;-1.518;2024-02-28T04:54:36;10.18;;;2.67;;
24153;SDS011;12312;53.362;-1.518;2024-02-28T04:57:20;13.63;;;3.75;;
24153;SDS011;12312;53.362;-1.518;2024-02-28T05:00:05;11.57;;;2.88;;
24153;SDS011;12312;53.362;-1.518;2024-02-28T05:02:49;19.13;;;3.80;;
24153;SDS011;12312;53.362;-1.518;2024-02-28T05:05:33;18.45;;;3.85;;
24153;SDS011;12312;53.362;-1.518;2024-02-28T05:08:19;12.57;;;3.35;;
24153;SDS011;12312;53.362;-1.518;2024-02-28T05:11:04;19.83;;;3.20;;
24153;SDS011;12312;53.362;-1.518;2024-02-28T05:13:48;8.18;;;2.72;;
24153;SDS011;12312;53.362;-1.518;2024-02-28T05:16:32;21.48;;;3.95;;
24153;SDS011;12312;53.362;-1.518;2024-02-28T05:19:17;8.98;;;2.53;;
24153;SDS011;12312;53.362;-1.518;2024-02-28T05:22:02;12.77;;;3.20;;
24153;SDS011;12312;53.362;-1.518;2024-02-28T05:24:46;12.55;;;3.92;;
24153;SDS011;12312;53.362;-1.518;2024-02-28T05:27:30;24.77;;;3.30;;
24153;SDS011;12312;53.362;-1.518;2024-02-28T05:30:14;13.27;;;2.83;;
24153;SDS011;12312;53.362;-1.518;2024-02-28T05:32:58;13.40;;;2.45;;
24153;SDS011;12312;53.362;-1.518;2024-02-28T05:35:42;12.07;;;2.67;;
24153;SDS011;12312;53.362;-1.518;2024-02-28T05:38:26;17.05;;;3.38;;
24153;SDS011;12312;53.362;-1.518;2024-02-28T05:41:10;15.35;;;3.63;;
24153;SDS011;12312;53.362;-1.518;2024-02-28T05:43:55;17.58;;;3.22;;
24153;SDS011;12312;53.362;-1.518;2024-02-28T05:46:39;27.25;;;3.53;;
24153;SDS011;12312;53.362;-1.518;2024-02-28T05:49:23;10.70;;;2.72;;
24153;SDS011;12312;53.362;-1.518;2024-02-28T05:52:07;8.82;;;2.20;;
24153;SDS011;12312;53.362;-1.518;2024-02-28T05:54:51;15.93;;;3.33;;
24153;SDS011;12312;53.362;-1.518;2024-02-28T05:57:35;16.20;;;3.53;;
24153;SDS011;12312;53.362;-1.518;2024-02-28T06:00:19;17.45;;;4.20;;
24153;SDS011;12312;53.362;-1.518;2024-02-28T06:03:03;15.50;;;2.80;;
24153;SDS011;12312;53.362;-1.518;2024-02-28T06:05:47;13.43;;;2.78;;
24153;SDS011;12312;53.362;-1.518;2024-02-28T06:08:35;13.25;;;2.83;;
24153;SDS011;12312;53.362;-1.518;2024-02-28T06:11:22;12.95;;;3.47;;
24153;SDS011;12312;53.362;-1.518;2024-02-28T06:14:06;14.35;;;2.83;;
24153;SDS011;12312;53.362;-1.518;2024-02-28T06:16:50;21.42;;;2.25;;
24153;SDS011;12312;53.362;-1.518;2024-02-28T06:19:34;21.63;;;2.83;;
24153;SDS011;12312;53.362;-1.518;2024-02-28T06:22:18;11.07;;;2.38;;
24153;SDS011;12312;53.362;-1.518;2024-02-28T06:25:03;8.45;;;2.30;;
24153;SDS011;12312;53.362;-1.518;2024-02-28T06:27:51;20.42;;;2.70;;
24153;SDS011;12312;53.362;-1.518;2024-02-28T06:30:35;7.38;;;2.40;;
24153;SDS011;12312;53.362;-1.518;2024-02-28T06:33:19;19.25;;;3.03;;
24153;SDS011;12312;53.362;-1.518;2024-02-28T06:36:03;21.38;;;3.00;;
24153;SDS011;12312;53.362;-1.518;2024-02-28T06:38:47;7.10;;;2.78;;
24153;SDS011;12312;53.362;-1.518;2024-02-28T06:41:31;12.63;;;2.50;;
24153;SDS011;12312;53.362;-1.518;2024-02-28T06:44:15;8.60;;;2.90;;
24153;SDS011;12312;53.362;-1.518;2024-02-28T06:47:00;10.95;;;2.28;;
24153;SDS011;12312;53.362;-1.518;2024-02-28T06:49:44;9.60;;;1.95;;
24153;SDS011;12312;53.362;-1.518;2024-02-28T06:52:28;13.18;;;2.33;;
24153;SDS011;12312;53.362;-1.518;2024-02-28T06:55:12;15.70;;;3.47;;
24153;SDS011;12312;53.362;-1.518;2024-02-28T06:57:57;13.35;;;2.78;;
24153;SDS011;12312;53.362;-1.518;2024-02-28T07:00:41;17.00;;;2.35;;
24153;SDS011;12312;53.362;-1.518;2024-02-28T07:03:25;14.32;;;2.17;;
24153;SDS011;12312;53.362;-1.518;2024-02-28T07:06:09;9.75;;;2.38;;
24153;SDS011;12312;53.362;-1.518;2024-02-28T07:08:54;10.93;;;2.47;;
24153;SDS011;12312;53.362;-1.518;2024-02-28T07:11:38;6.70;;;2.38;;
24153;SDS011;12312;53.362;-1.518;2024-02-28T07:14:22;16.45;;;2.83;;
24153;SDS011;12312;53.362;-1.518;2024-02-28T07:17:06;9.48;;;2.70;;
24153;SDS011;12312;53.362;-1.518;2024-02-28T07:19:50;16.67;;;1.85;;
24153;SDS011;12312;53.362;-1.518;2024-02-28T07:22:34;12.60;;;2.10;;
24153;SDS011;12312;53.362;-1.518;2024-02-28T07:25:18;15.50;;;3.45;;
24153;SDS011;12312;53.362;-1.518;2024-02-28T07:28:02;14.27;;;2.97;;
24153;SDS011;12312;53.362;-1.518;2024-02-28T07:30:47;11.43;;;2.45;;
24153;SDS011;12312;53.362;-1.518;2024-02-28T07:33:31;14.98;;;2.30;;
24153;SDS011;12312;53.362;-1.518;2024-02-28T07:36:16;7.85;;;2.20;;
24153;SDS011;12312;53.362;-1.518;2024-02-28T07:39:00;13.80;;;1.80;;
24153;SDS011;12312;53.362;-1.518;2024-02-28T07:41:44;15.95;;;2.15;;
24153;SDS011;12312;53.362;-1.518;2024-02-28T07:44:28;10.80;;;2.25;;
24153;SDS011;12312;53.362;-1.518;2024-02-28T07:49:58;15.65;;;2.92;;
24153;SDS011;12312;53.362;-1.518;2024-02-28T07:52:42;13.90;;;2.33;;
24153;SDS011;12312;53.362;-1.518;2024-02-28T07:55:26;19.45;;;2.72;;
24153;SDS011;12312;53.362;-1.518;2024-02-28T07:58:11;13.52;;;2.38;;
24153;SDS011;12312;53.362;-1.518;2024-02-28T08:00:55;15.48;;;2.63;;
24153;SDS011;12312;53.362;-1.518;2024-02-28T08:03:39;12.48;;;1.77;;
24153;SDS011;12312;53.362;-1.518;2024-02-28T08:06:24;5.43;;;1.98;;
24153;SDS011;12312;53.362;-1.518;2024-02-28T08:09:09;9.15;;;2.67;;
24153;SDS011;12312;53.362;-1.518;2024-02-28T08:11:53;8.88;;;2.45;;
24153;SDS011;12312;53.362;-1.518;2024-02-28T08:14:37;17.05;;;2.40;;
24153;SDS011;12312;53.362;-1.518;2024-02-28T08:17:20;7.13;;;1.90;;
24153;SDS011;12312;53.362;-1.518;2024-02-28T08:20:05;14.30;;;2.40;;
24153;SDS011;12312;53.362;-1.518;2024-02-28T08:22:49;20.17;;;3.80;;
24153;SDS011;12312;53.362;-1.518;2024-02-28T08:25:36;14.02;;;2.33;;
24153;SDS011;12312;53.362;-1.518;2024-02-28T08:28:21;13.15;;;2.47;;
24153;SDS011;12312;53.362;-1.518;2024-02-28T08:31:06;17.00;;;3.63;;
24153;SDS011;12312;53.362;-1.518;2024-02-28T08:33:50;12.13;;;2.58;;
24153;SDS011;12312;53.362;-1.518;2024-02-28T08:36:34;12.80;;;2.20;;
24153;SDS011;12312;53.362;-1.518;2024-02-28T08:39:19;16.97;;;3.00;;
24153;SDS011;12312;53.362;-1.518;2024-02-28T08:42:03;14.00;;;2.75;;
24153;SDS011;12312;53.362;-1.518;2024-02-28T08:44:47;10.27;;;2.28;;
24153;SDS011;12312;53.362;-1.518;2024-02-28T08:47:31;14.07;;;2.25;;
24153;SDS011;12312;53.362;-1.518;2024-02-28T08:50:16;6.82;;;2.90;;
24153;SDS011;12312;53.362;-1.518;2024-02-28T08:53:01;14.45;;;2.75;;
24153;SDS011;12312;53.362;-1.518;2024-02-28T08:58:30;7.75;;;2.78;;
24153;SDS011;12312;53.362;-1.518;2024-02-28T09:01:14;13.82;;;2.65;;
24153;SDS011;12312;53.362;-1.518;2024-02-28T09:04:01;6.53;;;2.53;;
24153;SDS011;12312;53.362;-1.518;2024-02-28T09:06:46;13.23;;;2.28;;
24153;SDS011;12312;53.362;-1.518;2024-02-28T09:09:30;26.25;;;2.90;;
24153;SDS011;12312;53.362;-1.518;2024-02-28T09:12:17;8.50;;;2.45;;
24153;SDS011;12312;53.362;-1.518;2024-02-28T09:15:01;7.45;;;1.90;;
24153;SDS011;12312;53.362;-1.518;2024-02-28T09:17:46;10.65;;;2.22;;
24153;SDS011;12312;53.362;-1.518;2024-02-28T09:20:30;11.20;;;2.03;;
24153;SDS011;12312;53.362;-1.518;2024-02-28T09:23:14;14.15;;;2.03;;
24153;SDS011;12312;53.362;-1.518;2024-02-28T09:25:58;14.73;;;1.95;;
24153;SDS011;12312;53.362;-1.518;2024-02-28T09:28:42;14.13;;;2.03;;
24153;SDS011;12312;53.362;-1.518;2024-02-28T09:31:25;15.70;;;3.03;;
24153;SDS011;12312;53.362;-1.518;2024-02-28T09:34:09;11.23;;;2.58;;
24153;SDS011;12312;53.362;-1.518;2024-02-28T09:36:53;9.52;;;2.15;;
24153;SDS011;12312;53.362;-1.518;2024-02-28T09:39:38;9.70;;;2.22;;
24153;SDS011;12312;53.362;-1.518;2024-02-28T09:42:23;10.93;;;2.67;;
24153;SDS011;12312;53.362;-1.518;2024-02-28T09:45:08;11.43;;;2.42;;
24153;SDS011;12312;53.362;-1.518;2024-02-28T09:47:54;11.48;;;2.40;;
24153;SDS011;12312;53.362;-1.518;2024-02-28T09:50:39;15.63;;;3.17;;
24153;SDS011;12312;53.362;-1.518;2024-02-28T09:53:23;12.32;;;3.58;;
24153;SDS011;12312;53.362;-1.518;2024-02-28T09:56:07;11.95;;;2.20;;
24153;SDS011;12312;53.362;-1.518;2024-02-28T09:58:52;8.63;;;2.35;;
24153;SDS011;12312;53.362;-1.518;2024-02-28T10:01:42;13.00;;;2.88;;
24153;SDS011;12312;53.362;-1.518;2024-02-28T10:04:30;15.68;;;2.35;;
24153;SDS011;12312;53.362;-1.518;2024-02-28T10:07:14;9.65;;;2.10;;
24153;SDS011;12312;53.362;-1.518;2024-02-28T10:09:58;16.02;;;2.92;;
24153;SDS011;12312;53.362;-1.518;2024-02-28T10:12:42;13.60;;;3.05;;
24153;SDS011;12312;53.362;-1.518;2024-02-28T10:15:26;7.70;;;2.20;;
24153;SDS011;12312;53.362;-1.518;2024-02-28T10:18:11;8.20;;;3.08;;
24153;SDS011;12312;53.362;-1.518;2024-02-28T10:20:55;10.82;;;2.08;;
24153;SDS011;12312;53.362;-1.518;2024-02-28T10:23:39;12.93;;;2.70;;
24153;SDS011;12312;53.362;-1.518;2024-02-28T10:26:24;12.32;;;2.50;;
24153;SDS011;12312;53.362;-1.518;2024-02-28T10:29:08;11.07;;;2.50;;
24153;SDS011;12312;53.362;-1.518;2024-02-28T10:31:51;15.60;;;3.13;;
24153;SDS011;12312;53.362;-1.518;2024-02-28T10:34:35;11.40;;;2.72;;
24153;SDS011;12312;53.362;-1.518;2024-02-28T10:37:21;8.18;;;2.53;;
24153;SDS011;12312;53.362;-1.518;2024-02-28T10:40:05;15.38;;;3.40;;
24153;SDS011;12312;53.362;-1.518;2024-02-28T10:42:51;12.93;;;2.53;;
24153;SDS011;12312;53.362;-1.518;2024-02-28T10:45:36;14.05;;;2.65;;
24153;SDS011;12312;53.362;-1.518;2024-02-28T10:48:24;23.27;;;3.30;;
24153;SDS011;12312;53.362;-1.518;2024-02-28T10:51:09;10.30;;;3.30;;
24153;SDS011;12312;53.362;-1.518;2024-02-28T10:56:52;11.38;;;3.22;;
24153;SDS011;12312;53.362;-1.518;2024-02-28T10:59:37;7.30;;;2.15;;
24153;SDS011;12312;53.362;-1.518;2024-02-28T11:02:23;8.70;;;2.70;;
24153;SDS011;12312;53.362;-1.518;2024-02-28T11:07:54;13.18;;;3.20;;
24153;SDS011;12312;53.362;-1.518;2024-02-28T11:10:41;10.00;;;2.88;;
24153;SDS011;12312;53.362;-1.518;2024-02-28T11:13:30;14.05;;;3.00;;
24153;SDS011;12312;53.362;-1.518;2024-02-28T11:16:17;21.67;;;4.35;;
24153;SDS011;12312;53.362;-1.518;2024-02-28T11:19:02;12.82;;;3.58;;
24153;SDS011;12312;53.362;-1.518;2024-02-28T11:21:55;11.32;;;2.85;;
24153;SDS011;12312;53.362;-1.518;2024-02-28T11:24:40;10.63;;;2.83;;
24153;SDS011;12312;53.362;-1.518;2024-02-28T11:27:28;13.05;;;3.40;;
24153;SDS011;12312;53.362;-1.518;2024-02-28T11:30:12;11.02;;;3.13;;
24153;SDS011;12312;53.362;-1.518;2024-02-28T11:32:57;15.48;;;3.75;;
24153;SDS011;12312;53.362;-1.518;2024-02-28T11:35:42;24.02;;;4.00;;
24153;SDS011;12312;53.362;-1.518;2024-02-28T11:38:26;15.05;;;3.95;;
24153;SDS011;12312;53.362;-1.518;2024-02-28T11:41:10;13.55;;;2.88;;
24153;SDS011;12312;53.362;-1.518;2024-02-28T11:43:54;8.10;;;3.00;;
24153;SDS011;12312;53.362;-1.518;2024-02-28T11:46:42;14.93;;;3.97;;
24153;SDS011;12312;53.362;-1.518;2024-02-28T11:49:26;23.83;;;4.43;;
24153;SDS011;12312;53.362;-1.518;2024-02-28T11:52:10;14.68;;;3.83;;
24153;SDS011;12312;53.362;-1.518;2024-02-28T11:54:55;11.73;;;3.17;;
24153;SDS011;12312;53.362;-1.518;2024-02-28T11:57:39;12.85;;;3.30;;
24153;SDS011;12312;53.362;-1.518;2024-02-28T12:00:24;18.08;;;4.05;;
24153;SDS011;12312;53.362;-1.518;2024-02-28T12:03:07;12.43;;;3.40;;
24153;SDS011;12312;53.362;-1.518;2024-02-28T12:05:52;20.50;;;3.75;;
24153;SDS011;12312;53.362;-1.518;2024-02-28T12:08:36;19.67;;;3.20;;
24153;SDS011;12312;53.362;-1.518;2024-02-28T12:11:20;11.52;;;3.60;;
24153;SDS011;12312;53.362;-1.518;2024-02-28T12:14:07;11.20;;;4.50;;
24153;SDS011;12312;53.362;-1.518;2024-02-28T12:16:52;9.30;;;2.33;;
24153;SDS011;12312;53.362;-1.518;2024-02-28T12:19:36;15.07;;;2.60;;
24153;SDS011;12312;53.362;-1.518;2024-02-28T12:22:20;11.90;;;3.38;;
24153;SDS011;12312;53.362;-1.518;2024-02-28T12:25:05;15.23;;;2.75;;
24153;SDS011;12312;53.362;-1.518;2024-02-28T12:27:50;13.43;;;3.03;;
24153;SDS011;12312;53.362;-1.518;2024-02-28T12:30:43;18.60;;;2.70;;
24153;SDS011;12312;53.362;-1.518;2024-02-28T12:33:27;12.38;;;2.83;;
24153;SDS011;12312;53.362;-1.518;2024-02-28T12:36:11;8.27;;;3.05;;
24153;SDS011;12312;53.362;-1.518;2024-02-28T12:38:55;16.25;;;2.90;;
24153;SDS011;12312;53.362;-1.518;2024-02-28T12:41:39;12.93;;;2.80;;
24153;SDS011;12312;53.362;-1.518;2024-02-28T12:44:23;8.65;;;2.55;;
24153;SDS011;12312;53.362;-1.518;2024-02-28T12:47:07;12.13;;;2.40;;
24153;SDS011;12312;53.362;-1.518;2024-02-28T12:49:51;11.25;;;2.47;;
24153;SDS011;12312;53.362;-1.518;2024-02-28T12:52:35;5.30;;;1.90;;
24153;SDS011;12312;53.362;-1.518;2024-02-28T12:55:19;11.02;;;2.47;;
24153;SDS011;12312;53.362;-1.518;2024-02-28T12:58:07;12.45;;;2.65;;
24153;SDS011;12312;53.362;-1.518;2024-02-28T13:00:51;7.45;;;2.55;;
24153;SDS011;12312;53.362;-1.518;2024-02-28T13:03:36;6.70;;;2.28;;
24153;SDS011;12312;53.362;-1.518;2024-02-28T13:06:19;12.50;;;2.63;;
24153;SDS011;12312;53.362;-1.518;2024-02-28T13:09:03;8.32;;;2.20;;
24153;SDS011;12312;53.362;-1.518;2024-02-28T13:11:49;14.05;;;3.13;;
24153;SDS011;12312;53.362;-1.518;2024-02-28T13:14:33;6.10;;;2.13;;
24153;SDS011;12312;53.362;-1.518;2024-02-28T13:17:17;11.55;;;2.50;;
24153;SDS011;12312;53.362;-1.518;2024-02-28T13:20:03;7.50;;;2.35;;
24153;SDS011;12312;53.362;-1.518;2024-02-28T13:22:47;8.65;;;2.38;;
24153;SDS011;12312;53.362;-1.518;2024-02-28T13:25:31;10.18;;;2.97;;
24153;SDS011;12312;53.362;-1.518;2024-02-28T13:28:15;12.77;;;3.40;;
24153;SDS011;12312;53.362;-1.518;2024-02-28T13:31:00;7.10;;;2.60;;
24153;SDS011;12312;53.362;-1.518;2024-02-28T13:33:44;9.07;;;2.60;;
24153;SDS011;12312;53.362;-1.518;2024-02-28T13:36:28;8.10;;;2.75;;
24153;SDS011;12312;53.362;-1.518;2024-02-28T13:39:16;11.25;;;2.40;;
24153;SDS011;12312;53.362;-1.518;2024-02-28T13:42:00;10.85;;;3.10;;
24153;SDS011;12312;53.362;-1.518;2024-02-28T13:44:43;11.80;;;2.30;;
24153;SDS011;12312;53.362;-1.518;2024-02-28T13:47:27;3.72;;;2.13;;
24153;SDS011;12312;53.362;-1.518;2024-02-28T13:50:11;9.70;;;2.97;;
24153;SDS011;12312;53.362;-1.518;2024-02-28T13:52:55;9.93;;;3.50;;
24153;SDS011;12312;53.362;-1.518;2024-02-28T13:55:39;9.25;;;2.33;;
24153;SDS011;12312;53.362;-1.518;2024-02-28T13:58:23;14.90;;;3.30;;
24153;SDS011;12312;53.362;-1.518;2024-02-28T14:01:07;6.82;;;2.70;;
24153;SDS011;12312;53.362;-1.518;2024-02-28T14:03:53;8.00;;;2.88;;
24153;SDS011;12312;53.362;-1.518;2024-02-28T14:06:38;8.88;;;3.20;;
24153;SDS011;12312;53.362;-1.518;2024-02-28T14:09:22;9.68;;;3.17;;
24153;SDS011;12312;53.362;-1.518;2024-02-28T14:12:06;8.90;;;3.20;;
24153;SDS011;12312;53.362;-1.518;2024-02-28T14:14:51;7.80;;;3.10;;
24153;SDS011;12312;53.362;-1.518;2024-02-28T14:17:35;12.05;;;3.42;;
24153;SDS011;12312;53.362;-1.518;2024-02-28T14:20:20;8.95;;;3.03;;
24153;SDS011;12312;53.362;-1.518;2024-02-28T14:23:04;30.85;;;11.00;;
24153;SDS011;12312;53.362;-1.518;2024-02-28T14:25:48;43.40;;;13.25;;
24153;SDS011;12312;53.362;-1.518;2024-02-28T14:28:33;11.23;;;3.55;;
24153;SDS011;12312;53.362;-1.518;2024-02-28T14:31:17;7.13;;;3.05;;
24153;SDS011;12312;53.362;-1.518;2024-02-28T14:34:00;16.52;;;3.88;;
24153;SDS011;12312;53.362;-1.518;2024-02-28T14:36:44;11.93;;;3.38;;
24153;SDS011;12312;53.362;-1.518;2024-02-28T14:39:28;14.25;;;3.80;;
24153;SDS011;12312;53.362;-1.518;2024-02-28T14:42:12;11.40;;;3.92;;
24153;SDS011;12312;53.362;-1.518;2024-02-28T14:44:56;10.30;;;3.35;;
24153;SDS011;12312;53.362;-1.518;2024-02-28T14:47:40;9.68;;;4.30;;
24153;SDS011;12312;53.362;-1.518;2024-02-28T14:50:25;10.18;;;3.90;;
24153;SDS011;12312;53.362;-1.518;2024-02-28T14:53:09;7.65;;;2.88;;
24153;SDS011;12312;53.362;-1.518;2024-02-28T14:55:53;9.25;;;3.78;;
24153;SDS011;12312;53.362;-1.518;2024-02-28T14:58:38;13.27;;;3.72;;
24153;SDS011;12312;53.362;-1.518;2024-02-28T15:01:22;11.85;;;3.85;;
24153;SDS011;12312;53.362;-1.518;2024-02-28T15:04:07;15.18;;;4.60;;
24153;SDS011;12312;53.362;-1.518;2024-02-28T15:06:53;14.95;;;4.30;;
24153;SDS011;12312;53.362;-1.518;2024-02-28T15:09:37;14.82;;;4.28;;
24153;SDS011;12312;53.362;-1.518;2024-02-28T15:12:21;10.70;;;3.60;;
24153;SDS011;12312;53.362;-1.518;2024-02-28T15:15:05;11.00;;;4.28;;
24153;SDS011;12312;53.362;-1.518;2024-02-28T15:17:50;13.15;;;4.05;;
24153;SDS011;12312;53.362;-1.518;2024-02-28T15:20:34;12.52;;;4.43;;
24153;SDS011;12312;53.362;-1.518;2024-02-28T15:23:18;14.70;;;4.95;;
24153;SDS011;12312;53.362;-1.518;2024-02-28T15:26:03;13.15;;;3.88;;
24153;SDS011;12312;53.362;-1.518;2024-02-28T15:28:46;16.48;;;5.18;;
24153;SDS011;12312;53.362;-1.518;2024-02-28T15:31:30;14.40;;;4.47;;
24153;SDS011;12312;53.362;-1.518;2024-02-28T15:34:14;10.70;;;4.30;;
24153;SDS011;12312;53.362;-1.518;2024-02-28T15:36:58;14.48;;;4.93;;
24153;SDS011;12312;53.362;-1.518;2024-02-28T15:39:42;7.70;;;4.22;;
24153;SDS011;12312;53.362;-1.518;2024-02-28T15:42:27;9.60;;;4.35;;
24153;SDS011;12312;53.362;-1.518;2024-02-28T15:45:11;10.80;;;4.53;;
24153;SDS011;12312;53.362;-1.518;2024-02-28T15:47:55;9.75;;;4.65;;
24153;SDS011;12312;53.362;-1.518;2024-02-28T15:50:39;10.05;;;4.57;;
24153;SDS011;12312;53.362;-1.518;2024-02-28T15:53:23;8.68;;;4.25;;
24153;SDS011;12312;53.362;-1.518;2024-02-28T15:56:07;11.50;;;4.07;;
24153;SDS011;12312;53.362;-1.518;2024-02-28T15:58:51;7.45;;;3.90;;
24153;SDS011;12312;53.362;-1.518;2024-02-28T16:01:35;7.00;;;3.58;;
24153;SDS011;12312;53.362;-1.518;2024-02-28T16:04:19;7.93;;;3.20;;
24153;SDS011;12312;53.362;-1.518;2024-02-28T16:07:03;8.77;;;4.28;;
24153;SDS011;12312;53.362;-1.518;2024-02-28T16:09:47;6.40;;;3.60;;
24153;SDS011;12312;53.362;-1.518;2024-02-28T16:12:33;8.95;;;3.72;;
24153;SDS011;12312;53.362;-1.518;2024-02-28T16:15:18;7.47;;;3.30;;